createdAt,value
2023-06-03T00:00:02.679Z,5.89
2023-06-03T00:01:01.628Z,5.95
2023-06-03T00:02:02.691Z,5.95
2023-06-03T00:03:02.844Z,6.15
2023-06-03T00:04:02.008Z,6.11
2023-06-03T00:05:01.827Z,6.13
2023-06-03T00:06:02.879Z,5.98
2023-06-03T00:07:01.857Z,5.97
2023-06-03T00:08:01.916Z,6.14
2023-06-03T00:09:01.933Z,5.99
2023-06-03T00:10:02.999Z,6.08
2023-06-03T00:11:03.197Z,6.04
2023-06-03T00:12:03.072Z,5.87
2023-06-03T00:13:03.105Z,5.92
2023-06-03T00:14:02.135Z,5.83
2023-06-03T00:15:03.217Z,5.91
2023-06-03T00:16:02.287Z,5.90
2023-06-03T00:17:02.354Z,5.93
2023-06-03T00:18:02.476Z,5.75
2023-06-03T00:19:02.365Z,5.84
2023-06-03T00:20:03.448Z,5.89
2023-06-03T00:21:02.675Z,5.75
2023-06-03T00:22:02.499Z,5.89
2023-06-03T00:23:03.542Z,5.92
2023-06-03T00:24:03.756Z,5.98
2023-06-03T00:25:03.636Z,5.92
2023-06-03T00:26:03.685Z,5.93
2023-06-03T00:27:02.710Z,5.81
2023-06-03T00:28:03.770Z,5.72
2023-06-03T00:29:03.820Z,5.73
2023-06-03T00:30:02.858Z,5.64
2023-06-03T00:31:03.126Z,5.70
2023-06-03T00:32:03.054Z,5.78
2023-06-03T00:33:04.106Z,5.60
2023-06-03T00:34:03.083Z,5.60
2023-06-03T00:35:04.084Z,5.60
2023-06-03T00:36:04.133Z,5.57
2023-06-03T00:37:04.158Z,5.63
2023-06-03T00:38:04.233Z,5.59
2023-06-03T00:39:03.246Z,5.50
2023-06-03T00:40:04.288Z,5.54
2023-06-03T00:41:04.552Z,5.51
2023-06-03T00:42:03.372Z,5.45
2023-06-03T00:43:04.449Z,5.42
2023-06-03T00:44:04.470Z,5.55
2023-06-03T00:45:03.509Z,5.43
2023-06-03T00:46:04.653Z,5.58
2023-06-03T00:47:04.621Z,5.61
2023-06-03T00:48:03.704Z,5.51
2023-06-03T00:49:04.707Z,5.60
2023-06-03T00:50:03.773Z,5.57
2023-06-03T00:51:05.047Z,5.52
2023-06-03T00:52:03.835Z,5.51
2023-06-03T00:53:04.875Z,5.51
2023-06-03T00:54:04.921Z,5.41
2023-06-03T00:55:03.950Z,5.45
2023-06-03T00:56:04.004Z,5.36
2023-06-03T00:57:05.084Z,5.39
2023-06-03T00:58:05.105Z,5.53
2023-06-03T00:59:05.190Z,5.51
2023-06-03T01:00:04.183Z,5.50
2023-06-03T01:01:04.513Z,5.36
2023-06-03T01:02:05.343Z,5.40
2023-06-03T01:03:05.450Z,5.39
2023-06-03T01:04:05.351Z,5.35
2023-06-03T01:05:05.462Z,5.25
2023-06-03T01:06:05.446Z,5.33
2023-06-03T01:07:04.513Z,5.32
2023-06-03T01:08:05.560Z,5.24
2023-06-03T01:09:04.580Z,5.37
2023-06-03T01:10:05.644Z,5.35
2023-06-03T01:11:05.947Z,5.28
2023-06-03T01:12:04.756Z,5.40
2023-06-03T01:13:05.798Z,5.41
2023-06-03T01:14:04.844Z,5.25
2023-06-03T01:15:04.897Z,5.21
2023-06-03T01:16:04.962Z,5.26
2023-06-03T01:17:05.968Z,5.31
2023-06-03T01:18:06.174Z,5.28
2023-06-03T01:19:05.053Z,5.10
2023-06-03T01:20:06.117Z,5.15
2023-06-03T01:21:06.356Z,5.17
2023-06-03T01:22:05.182Z,5.18
2023-06-03T01:23:06.252Z,5.22
2023-06-03T01:24:06.279Z,5.17
2023-06-03T01:25:05.430Z,5.19
2023-06-03T01:26:06.366Z,5.26
2023-06-03T01:27:06.401Z,5.25
2023-06-03T01:28:05.469Z,5.26
2023-06-03T01:29:06.505Z,5.24
2023-06-03T01:30:05.548Z,5.13
2023-06-03T01:31:05.901Z,5.17
2023-06-03T01:32:05.654Z,5.11
2023-06-03T01:33:06.834Z,5.03
2023-06-03T01:34:06.744Z,5.19
2023-06-03T01:35:06.787Z,5.15
2023-06-03T01:36:05.849Z,5.06
2023-06-03T01:37:06.864Z,5.10
2023-06-03T01:38:06.965Z,5.08
2023-06-03T01:39:06.944Z,4.98
2023-06-03T01:40:06.992Z,5.08
2023-06-03T01:41:06.349Z,4.97
2023-06-03T01:42:07.080Z,4.99
2023-06-03T01:43:06.128Z,4.84
2023-06-03T01:44:06.179Z,4.96
2023-06-03T01:45:06.222Z,4.91
2023-06-03T01:46:07.337Z,4.89
2023-06-03T01:47:07.358Z,4.88
2023-06-03T01:48:07.419Z,4.90
2023-06-03T01:49:06.406Z,4.96
2023-06-03T01:50:07.450Z,4.85
2023-06-03T01:51:07.490Z,4.97
2023-06-03T01:52:07.536Z,5.02
2023-06-03T01:53:08.075Z,4.93
2023-06-03T01:54:06.680Z,4.94
2023-06-03T01:55:07.717Z,4.87
2023-06-03T01:56:07.769Z,4.85
2023-06-03T01:57:07.858Z,4.91
2023-06-03T01:58:06.857Z,4.97
2023-06-03T01:59:07.892Z,4.90
2023-06-03T02:00:07.960Z,4.87
2023-06-03T02:01:07.158Z,4.86
2023-06-03T02:02:07.132Z,4.88
2023-06-03T02:03:07.212Z,4.88
2023-06-03T02:04:08.166Z,4.87
2023-06-03T02:05:08.197Z,4.81
2023-06-03T02:06:07.267Z,4.72
2023-06-03T02:07:08.284Z,4.72
2023-06-03T02:08:07.330Z,4.76
2023-06-03T02:09:08.368Z,4.81
2023-06-03T02:10:07.425Z,4.73
2023-06-03T02:11:08.483Z,4.80
2023-06-03T02:12:08.513Z,4.69
2023-06-03T02:13:07.558Z,4.78
2023-06-03T02:14:07.616Z,4.78
2023-06-03T02:15:07.658Z,4.79
2023-06-03T02:16:08.744Z,4.78
2023-06-03T02:17:08.748Z,4.75
2023-06-03T02:18:07.827Z,4.67
2023-06-03T02:19:07.808Z,4.66
2023-06-03T02:20:08.894Z,4.63
2023-06-03T02:21:08.906Z,4.77
2023-06-03T02:22:07.946Z,4.72
2023-06-03T02:23:08.994Z,4.71
2023-06-03T02:24:08.037Z,4.69
2023-06-03T02:25:09.093Z,4.70
2023-06-03T02:26:09.123Z,4.63
2023-06-03T02:27:09.163Z,4.73
2023-06-03T02:28:08.206Z,4.61
2023-06-03T02:29:09.285Z,4.66
2023-06-03T02:30:09.267Z,4.71
2023-06-03T02:31:08.317Z,4.62
2023-06-03T02:32:09.395Z,4.65
2023-06-03T02:33:09.451Z,4.60
2023-06-03T02:34:08.438Z,4.67
2023-06-03T02:35:09.448Z,4.61
2023-06-03T02:36:09.491Z,4.67
2023-06-03T02:37:08.548Z,4.64
2023-06-03T02:38:09.576Z,4.64
2023-06-03T02:39:08.625Z,4.65
2023-06-03T02:40:09.633Z,4.50
2023-06-03T02:41:08.656Z,4.58
2023-06-03T02:42:09.706Z,4.61
2023-06-03T02:43:08.746Z,4.54
2023-06-03T02:44:08.755Z,4.48
2023-06-03T02:45:09.796Z,4.43
2023-06-03T02:46:09.874Z,4.48
2023-06-03T02:47:09.893Z,4.47
2023-06-03T02:48:09.967Z,4.46
2023-06-03T02:49:08.993Z,4.39
2023-06-03T02:50:10.008Z,4.41
2023-06-03T02:51:10.042Z,4.42
2023-06-03T02:52:09.082Z,4.41
2023-06-03T02:53:09.095Z,4.40
2023-06-03T02:54:09.136Z,4.42
2023-06-03T02:55:09.217Z,4.41
2023-06-03T02:56:09.177Z,4.45
2023-06-03T02:57:09.188Z,4.42
2023-06-03T02:58:09.225Z,4.46
2023-06-03T02:59:10.262Z,4.41
2023-06-03T03:00:09.276Z,4.42
2023-06-03T03:01:10.365Z,4.35
2023-06-03T03:02:10.318Z,4.40
2023-06-03T03:03:10.455Z,4.37
2023-06-03T03:04:09.386Z,4.33
2023-06-03T03:05:10.381Z,4.29
2023-06-03T03:06:09.421Z,4.29
2023-06-03T03:07:10.460Z,4.28
2023-06-03T03:08:10.467Z,4.31
2023-06-03T03:09:10.565Z,4.25
2023-06-03T03:10:10.505Z,4.26
2023-06-03T03:11:10.538Z,4.32
2023-06-03T03:12:10.566Z,4.28
2023-06-03T03:13:10.564Z,4.27
2023-06-03T03:14:09.582Z,4.34
2023-06-03T03:15:10.606Z,4.28
2023-06-03T03:16:09.674Z,4.25
2023-06-03T03:17:09.633Z,4.31
2023-06-03T03:18:10.693Z,4.21
2023-06-03T03:19:09.652Z,4.22
2023-06-03T03:20:10.684Z,4.22
2023-06-03T03:21:09.692Z,4.23
2023-06-03T03:22:10.694Z,4.23
2023-06-03T03:23:09.747Z,4.22
2023-06-03T03:24:10.730Z,4.23
2023-06-03T03:25:09.761Z,4.17
2023-06-03T03:26:10.837Z,4.12
2023-06-03T03:27:09.785Z,4.10
2023-06-03T03:28:10.801Z,4.15
2023-06-03T03:29:09.834Z,4.13
2023-06-03T03:30:10.878Z,4.03
2023-06-03T03:31:10.862Z,4.10
2023-06-03T03:32:10.907Z,4.07
2023-06-03T03:33:10.908Z,4.11
2023-06-03T03:34:09.914Z,4.13
2023-06-03T03:35:09.932Z,4.06
2023-06-03T03:36:09.940Z,4.11
2023-06-03T03:37:11.055Z,4.08
2023-06-03T03:38:10.972Z,4.11
2023-06-03T03:39:10.986Z,4.09
2023-06-03T03:40:11.020Z,4.13
2023-06-03T03:41:11.026Z,4.11
2023-06-03T03:42:11.047Z,4.05
2023-06-03T03:43:11.130Z,4.10
2023-06-03T03:44:11.119Z,4.02
2023-06-03T03:45:11.129Z,4.02
2023-06-03T03:46:10.156Z,3.93
2023-06-03T03:47:11.176Z,3.95
2023-06-03T03:48:11.205Z,3.99
2023-06-03T03:49:10.220Z,3.89
2023-06-03T03:50:11.225Z,3.96
2023-06-03T03:51:10.259Z,3.95
2023-06-03T03:52:13.219Z,3.94
2023-06-03T03:53:11.248Z,3.95
2023-06-03T03:54:11.227Z,3.96
2023-06-03T03:55:10.224Z,3.97
2023-06-03T03:56:11.249Z,4.02
2023-06-03T03:57:10.198Z,4.03
2023-06-03T03:58:10.199Z,3.94
2023-06-03T03:59:10.189Z,4.03
2023-06-03T04:00:10.185Z,3.85
2023-06-03T04:01:11.161Z,3.87
2023-06-03T04:02:11.165Z,3.89
2023-06-03T04:03:11.281Z,3.84
2023-06-03T04:04:11.166Z,3.86
2023-06-03T04:05:10.138Z,3.89
2023-06-03T04:06:11.135Z,3.88
2023-06-03T04:07:11.136Z,3.85
2023-06-03T04:08:11.136Z,3.90
2023-06-03T04:09:10.139Z,3.84
2023-06-03T04:10:11.111Z,3.79
2023-06-03T04:11:11.118Z,3.82
2023-06-03T04:12:10.086Z,3.73
2023-06-03T04:13:11.085Z,3.72
2023-06-03T04:14:10.091Z,3.77
2023-06-03T04:15:11.073Z,3.80
2023-06-03T04:16:10.119Z,3.78
2023-06-03T04:17:10.052Z,3.79
2023-06-03T04:18:11.052Z,3.76
2023-06-03T04:19:10.042Z,3.75
2023-06-03T04:20:11.038Z,3.70
2023-06-03T04:21:10.032Z,3.76
2023-06-03T04:22:10.024Z,3.80
2023-06-03T04:23:11.003Z,3.76
2023-06-03T04:24:10.090Z,3.65
2023-06-03T04:25:10.089Z,3.72
2023-06-03T04:26:09.994Z,3.72
2023-06-03T04:27:10.163Z,3.68
2023-06-03T04:28:10.045Z,3.73
2023-06-03T04:29:10.055Z,3.64
2023-06-03T04:30:10.973Z,3.65
2023-06-03T04:31:09.959Z,3.69
2023-06-03T04:32:09.983Z,3.69
2023-06-03T04:33:10.995Z,3.67
2023-06-03T04:34:09.950Z,3.71
2023-06-03T04:35:10.942Z,3.66
2023-06-03T04:36:10.928Z,3.71
2023-06-03T04:37:10.938Z,3.70
2023-06-03T04:38:10.901Z,3.67
2023-06-03T04:39:10.927Z,3.65
2023-06-03T04:40:09.895Z,3.66
2023-06-03T04:41:10.886Z,3.67
2023-06-03T04:42:10.893Z,3.66
2023-06-03T04:43:09.883Z,3.69
2023-06-03T04:44:10.938Z,3.63
2023-06-03T04:45:09.879Z,3.57
2023-06-03T04:46:10.875Z,3.61
2023-06-03T04:47:10.848Z,3.62
2023-06-03T04:48:10.904Z,3.67
2023-06-03T04:49:10.850Z,3.59
2023-06-03T04:50:10.828Z,3.64
2023-06-03T04:51:09.822Z,3.55
2023-06-03T04:52:10.854Z,3.65
2023-06-03T04:53:10.854Z,3.63
2023-06-03T04:54:10.859Z,3.57
2023-06-03T04:55:10.866Z,3.53
2023-06-03T04:56:10.850Z,3.62
2023-06-03T04:57:09.888Z,3.60
2023-06-03T04:58:09.876Z,3.58
2023-06-03T04:59:10.908Z,3.52
2023-06-03T05:00:10.937Z,3.54
2023-06-03T05:01:10.919Z,3.56
2023-06-03T05:02:11.117Z,3.57
2023-06-03T05:03:11.123Z,3.56
2023-06-03T05:04:10.084Z,3.56
2023-06-03T05:05:10.988Z,3.56
2023-06-03T05:06:11.010Z,3.57
2023-06-03T05:07:10.044Z,3.50
2023-06-03T05:08:10.036Z,3.48
2023-06-03T05:09:10.061Z,3.52
2023-06-03T05:10:11.112Z,3.56
2023-06-03T05:11:11.097Z,3.53
2023-06-03T05:12:10.120Z,3.49
2023-06-03T05:13:11.146Z,3.54
2023-06-03T05:14:10.225Z,3.53
2023-06-03T05:15:11.188Z,3.49
2023-06-03T05:16:10.246Z,3.51
2023-06-03T05:17:11.265Z,3.33
2023-06-03T05:18:11.279Z,3.49
2023-06-03T05:19:10.317Z,3.51
2023-06-03T05:20:10.343Z,3.35
2023-06-03T05:21:10.372Z,3.45
2023-06-03T05:22:10.424Z,3.38
2023-06-03T05:23:11.422Z,3.41
2023-06-03T05:24:10.474Z,3.42
2023-06-03T05:25:10.488Z,3.45
2023-06-03T05:26:11.506Z,3.39
2023-06-03T05:27:11.541Z,3.27
2023-06-03T05:28:11.596Z,3.36
2023-06-03T05:29:11.643Z,3.30
2023-06-03T05:30:10.702Z,3.36
2023-06-03T05:31:11.744Z,3.37
2023-06-03T05:32:11.785Z,3.26
2023-06-03T05:33:10.850Z,3.29
2023-06-03T05:34:10.850Z,3.29
2023-06-03T05:35:11.883Z,3.26
2023-06-03T05:36:10.882Z,3.28
2023-06-03T05:37:10.942Z,3.23
2023-06-03T05:38:10.958Z,3.31
2023-06-03T05:39:12.015Z,3.29
2023-06-03T05:40:12.028Z,3.23
2023-06-03T05:41:12.088Z,3.23
2023-06-03T05:42:11.105Z,3.21
2023-06-03T05:43:11.148Z,3.25
2023-06-03T05:44:12.209Z,3.37
2023-06-03T05:45:12.214Z,3.32
2023-06-03T05:46:12.309Z,3.26
2023-06-03T05:47:12.311Z,3.19
2023-06-03T05:48:12.387Z,3.25
2023-06-03T05:49:12.416Z,3.24
2023-06-03T05:50:12.463Z,3.21
2023-06-03T05:51:11.488Z,3.26
2023-06-03T05:52:12.566Z,3.25
2023-06-03T05:53:12.596Z,3.24
2023-06-03T05:54:12.652Z,3.20
2023-06-03T05:55:12.671Z,3.15
2023-06-03T05:56:12.742Z,3.20
2023-06-03T05:57:12.767Z,3.14
2023-06-03T05:58:12.833Z,3.24
2023-06-03T05:59:11.862Z,3.17
2023-06-03T06:00:11.923Z,3.22
2023-06-03T06:01:12.942Z,3.21
2023-06-03T06:02:12.994Z,3.12
2023-06-03T06:03:13.139Z,3.18
2023-06-03T06:04:13.256Z,3.15
2023-06-03T06:05:13.139Z,3.22
2023-06-03T06:06:12.166Z,3.20
2023-06-03T06:07:13.214Z,3.24
2023-06-03T06:08:12.286Z,3.26
2023-06-03T06:09:13.326Z,3.21
2023-06-03T06:10:13.440Z,3.22
2023-06-03T06:11:13.429Z,3.33
2023-06-03T06:12:12.449Z,3.22
2023-06-03T06:13:12.492Z,3.29
2023-06-03T06:14:13.534Z,3.21
2023-06-03T06:15:13.585Z,3.19
2023-06-03T06:16:12.835Z,3.20
2023-06-03T06:17:12.660Z,3.17
2023-06-03T06:18:13.691Z,3.24
2023-06-03T06:19:12.751Z,3.26
2023-06-03T06:20:12.792Z,3.27
2023-06-03T06:21:13.816Z,3.20
2023-06-03T06:22:13.828Z,3.18
2023-06-03T06:23:13.944Z,3.16
2023-06-03T06:24:13.973Z,3.24
2023-06-03T06:25:13.978Z,3.17
2023-06-03T06:26:14.001Z,3.17
2023-06-03T06:27:13.049Z,3.21
2023-06-03T06:28:14.105Z,3.16
2023-06-03T06:29:14.140Z,3.16
2023-06-03T06:30:13.198Z,3.08
2023-06-03T06:31:13.498Z,3.12
2023-06-03T06:32:13.322Z,3.14
2023-06-03T06:33:13.311Z,3.15
2023-06-03T06:34:14.339Z,3.11
2023-06-03T06:35:14.449Z,3.09
2023-06-03T06:36:14.446Z,3.13
2023-06-03T06:37:14.455Z,3.13
2023-06-03T06:38:14.495Z,3.15
2023-06-03T06:39:14.544Z,3.13
2023-06-03T06:40:13.579Z,3.09
2023-06-03T06:41:14.602Z,3.11
2023-06-03T06:42:14.642Z,3.05
2023-06-03T06:43:13.656Z,3.13
2023-06-03T06:44:13.693Z,3.12
2023-06-03T06:45:13.760Z,3.13
2023-06-03T06:46:14.861Z,3.11
2023-06-03T06:47:14.825Z,3.07
2023-06-03T06:48:13.864Z,3.03
2023-06-03T06:49:13.916Z,3.09
2023-06-03T06:50:13.954Z,3.05
2023-06-03T06:51:14.954Z,3.09
2023-06-03T06:52:15.002Z,3.00
2023-06-03T06:53:15.032Z,3.10
2023-06-03T06:54:14.063Z,3.13
2023-06-03T06:55:14.078Z,3.10
2023-06-03T06:56:14.099Z,3.12
2023-06-03T06:57:14.126Z,3.03
2023-06-03T06:58:14.187Z,3.04
2023-06-03T06:59:14.181Z,3.07
2023-06-03T07:00:14.218Z,3.02
2023-06-03T07:01:14.271Z,3.09
2023-06-03T07:02:15.248Z,3.00
2023-06-03T07:03:15.397Z,2.99
2023-06-03T07:04:14.299Z,3.00
2023-06-03T07:05:17.686Z,2.97
2023-06-03T07:06:14.325Z,3.00
2023-06-03T07:07:15.301Z,3.03
2023-06-03T07:08:14.331Z,2.97
2023-06-03T07:09:15.292Z,2.98
2023-06-03T07:10:15.295Z,3.02
2023-06-03T07:11:15.280Z,2.95
2023-06-03T07:12:15.281Z,2.95
2023-06-03T07:13:15.292Z,2.99
2023-06-03T07:14:15.267Z,2.95
2023-06-03T07:15:14.292Z,3.02
2023-06-03T07:16:15.307Z,2.99
2023-06-03T07:17:15.235Z,2.96
2023-06-03T07:18:15.238Z,2.96
2023-06-03T07:19:14.222Z,2.96
2023-06-03T07:20:14.281Z,2.96
2023-06-03T07:21:15.223Z,3.01
2023-06-03T07:22:14.217Z,3.04
2023-06-03T07:23:15.257Z,3.00
2023-06-03T07:24:14.193Z,3.00
2023-06-03T07:25:15.200Z,2.97
2023-06-03T07:26:14.180Z,3.01
2023-06-03T07:27:15.184Z,3.03
2023-06-03T07:28:14.175Z,2.96
2023-06-03T07:29:15.163Z,2.96
2023-06-03T07:30:15.205Z,2.99
2023-06-03T07:31:14.464Z,2.99
2023-06-03T07:32:15.227Z,2.95
2023-06-03T07:33:15.150Z,3.00
2023-06-03T07:34:15.127Z,2.95
2023-06-03T07:35:15.139Z,2.93
2023-06-03T07:36:16.220Z,2.99
2023-06-03T07:37:15.116Z,2.99
2023-06-03T07:38:15.103Z,3.00
2023-06-03T07:39:14.094Z,3.00
2023-06-03T07:40:15.265Z,2.94
2023-06-03T07:41:15.088Z,2.94
2023-06-03T07:42:15.074Z,2.90
2023-06-03T07:43:14.068Z,2.95
2023-06-03T07:44:14.085Z,2.88
2023-06-03T07:45:15.082Z,2.85
2023-06-03T07:46:14.097Z,2.79
2023-06-03T07:47:14.043Z,2.84
2023-06-03T07:48:15.086Z,2.85
2023-06-03T07:49:15.020Z,2.82
2023-06-03T07:50:15.044Z,2.78
2023-06-03T07:51:14.015Z,2.83
2023-06-03T07:52:15.014Z,2.76
2023-06-03T07:53:14.999Z,2.86
2023-06-03T07:54:14.030Z,2.76
2023-06-03T07:55:14.006Z,2.72
2023-06-03T07:56:15.001Z,2.75
2023-06-03T07:57:13.967Z,2.78
2023-06-03T07:58:13.964Z,2.80
2023-06-03T07:59:13.974Z,2.79
2023-06-03T08:00:14.980Z,2.76
2023-06-03T08:01:14.967Z,2.80
2023-06-03T08:02:13.998Z,2.76
2023-06-03T08:03:14.949Z,2.75
2023-06-03T08:04:14.936Z,2.74
2023-06-03T08:05:14.934Z,2.70
2023-06-03T08:06:14.955Z,2.71
2023-06-03T08:07:15.042Z,2.72
2023-06-03T08:08:14.907Z,2.73
2023-06-03T08:09:13.900Z,2.67
2023-06-03T08:10:14.921Z,2.69
2023-06-03T08:11:14.888Z,2.66
2023-06-03T08:12:14.874Z,2.68
2023-06-03T08:13:14.918Z,2.68
2023-06-03T08:14:14.872Z,2.65
2023-06-03T08:15:14.889Z,2.74
2023-06-03T08:16:14.894Z,2.69
2023-06-03T08:17:14.846Z,2.67
2023-06-03T08:18:14.842Z,2.65
2023-06-03T08:19:14.838Z,2.72
2023-06-03T08:20:14.835Z,2.62
2023-06-03T08:21:13.837Z,2.67
2023-06-03T08:22:14.843Z,2.65
2023-06-03T08:23:14.722Z,2.67
2023-06-03T08:24:13.829Z,2.65
2023-06-03T08:25:14.801Z,2.69
2023-06-03T08:26:14.815Z,2.64
2023-06-03T08:27:14.792Z,2.67
2023-06-03T08:28:13.789Z,2.65
2023-06-03T08:29:13.800Z,2.64
2023-06-03T08:30:14.783Z,2.68
2023-06-03T08:31:14.810Z,2.64
2023-06-03T08:32:14.760Z,2.66
2023-06-03T08:33:14.791Z,2.61
2023-06-03T08:34:14.742Z,2.64
2023-06-03T08:35:13.743Z,2.67
2023-06-03T08:36:13.721Z,2.65
2023-06-03T08:37:13.728Z,2.67
2023-06-03T08:38:14.744Z,2.68
2023-06-03T08:39:14.775Z,2.68
2023-06-03T08:40:13.818Z,2.68
2023-06-03T08:41:13.856Z,2.62
2023-06-03T08:42:13.904Z,2.63
2023-06-03T08:43:14.475Z,2.58
2023-06-03T08:44:13.970Z,2.65
2023-06-03T08:45:13.996Z,2.68
2023-06-03T08:46:15.041Z,2.59
2023-06-03T08:47:14.037Z,2.58
2023-06-03T08:48:15.158Z,2.59
2023-06-03T08:49:15.108Z,2.59
2023-06-03T08:50:14.131Z,2.56
2023-06-03T08:51:14.169Z,2.57
2023-06-03T08:52:14.186Z,2.60
2023-06-03T08:53:14.231Z,2.54
2023-06-03T08:54:15.249Z,2.58
2023-06-03T08:55:14.298Z,2.60
2023-06-03T08:56:14.335Z,2.62
2023-06-03T08:57:14.363Z,2.60
2023-06-03T08:58:14.396Z,2.53
2023-06-03T08:59:15.424Z,2.55
2023-06-03T09:00:15.482Z,2.49
2023-06-03T09:01:14.558Z,2.46
2023-06-03T09:02:14.570Z,2.45
2023-06-03T09:03:14.657Z,2.43
2023-06-03T09:04:18.229Z,2.44
2023-06-03T09:05:15.640Z,2.45
2023-06-03T09:06:14.640Z,2.46
2023-06-03T09:07:15.637Z,2.45
2023-06-03T09:08:15.618Z,2.47
2023-06-03T09:09:15.622Z,2.53
2023-06-03T09:10:17.102Z,2.51
2023-06-03T09:11:15.607Z,2.51
2023-06-03T09:12:15.591Z,2.52
2023-06-03T09:13:14.596Z,2.52
2023-06-03T09:14:15.589Z,2.52
2023-06-03T09:15:15.602Z,2.47
2023-06-03T09:16:17.199Z,2.47
2023-06-03T09:17:14.588Z,2.47
2023-06-03T09:18:15.556Z,2.48
2023-06-03T09:19:14.548Z,2.49
2023-06-03T09:20:15.543Z,2.45
2023-06-03T09:21:14.538Z,2.52
2023-06-03T09:22:14.608Z,2.49
2023-06-03T09:23:14.599Z,2.53
2023-06-03T09:24:14.515Z,2.51
2023-06-03T09:25:14.517Z,2.49
2023-06-03T09:26:14.501Z,2.49
2023-06-03T09:27:15.494Z,2.47
2023-06-03T09:28:17.204Z,2.48
2023-06-03T09:29:15.522Z,2.49
2023-06-03T09:30:14.478Z,2.49
2023-06-03T09:31:14.640Z,2.50
2023-06-03T09:32:15.465Z,2.46
2023-06-03T09:33:14.496Z,2.47
2023-06-03T09:34:14.456Z,2.44
2023-06-03T09:35:14.434Z,2.42
2023-06-03T09:36:16.903Z,2.37
2023-06-03T09:37:14.419Z,2.37
2023-06-03T09:38:14.432Z,2.38
2023-06-03T09:39:14.424Z,2.39
2023-06-03T09:40:15.395Z,2.37
2023-06-03T09:41:15.400Z,2.37
2023-06-03T09:42:15.391Z,2.41
2023-06-03T09:43:15.389Z,2.39
2023-06-03T09:44:16.139Z,2.43
2023-06-03T09:45:15.374Z,2.38
2023-06-03T09:46:15.355Z,2.42
2023-06-03T09:47:15.391Z,2.43
2023-06-03T09:48:15.336Z,2.30
2023-06-03T09:49:24.345Z,2.33
2023-06-03T09:50:16.923Z,2.43
2023-06-03T09:51:15.322Z,2.43
2023-06-03T09:52:15.313Z,2.44
2023-06-03T09:53:14.326Z,2.36
2023-06-03T09:54:14.312Z,2.35
2023-06-03T09:55:15.304Z,2.34
2023-06-03T09:56:16.224Z,2.41
2023-06-03T09:57:14.333Z,2.41
2023-06-03T09:58:14.284Z,2.41
2023-06-03T09:59:15.300Z,2.38
2023-06-03T10:00:14.282Z,2.28
2023-06-03T10:01:14.333Z,2.28
2023-06-03T10:02:15.353Z,2.33
2023-06-03T10:03:15.314Z,2.31
2023-06-03T10:04:15.225Z,2.26
2023-06-03T10:05:15.233Z,2.24
2023-06-03T10:06:15.240Z,2.25
2023-06-03T10:07:14.221Z,2.25
2023-06-03T10:08:14.204Z,2.22
2023-06-03T10:09:14.190Z,2.25
2023-06-03T10:10:14.185Z,2.23
2023-06-03T10:11:14.182Z,2.24
2023-06-03T10:12:15.205Z,2.24
2023-06-03T10:13:15.160Z,2.20
2023-06-03T10:14:15.135Z,2.17
2023-06-03T10:15:14.182Z,2.17
2023-06-03T10:16:14.132Z,2.20
2023-06-03T10:17:15.114Z,2.17
2023-06-03T10:18:15.135Z,2.21
2023-06-03T10:19:15.105Z,2.18
2023-06-03T10:20:14.113Z,2.18
2023-06-03T10:21:14.146Z,2.17
2023-06-03T10:22:15.089Z,2.17
2023-06-03T10:23:15.145Z,2.18
2023-06-03T10:24:17.991Z,2.16
2023-06-03T10:25:14.068Z,2.16
2023-06-03T10:26:14.063Z,2.17
2023-06-03T10:27:15.071Z,2.12
2023-06-03T10:28:14.057Z,2.09
2023-06-03T10:29:15.047Z,2.11
2023-06-03T10:30:15.090Z,2.17
2023-06-03T10:31:15.033Z,2.10
2023-06-03T10:32:15.016Z,2.12
2023-06-03T10:33:15.002Z,2.07
2023-06-03T10:34:15.000Z,2.10
2023-06-03T10:35:14.996Z,2.08
2023-06-03T10:36:14.996Z,2.13
2023-06-03T10:37:14.982Z,2.07
2023-06-03T10:38:14.988Z,2.10
2023-06-03T10:39:14.956Z,2.05
2023-06-03T10:40:14.962Z,2.04
2023-06-03T10:41:14.965Z,2.06
2023-06-03T10:42:15.000Z,2.06
2023-06-03T10:43:14.061Z,2.07
2023-06-03T10:44:15.102Z,2.05
2023-06-03T10:45:15.153Z,2.02
2023-06-03T10:46:15.236Z,2.01
2023-06-03T10:47:14.247Z,2.02
2023-06-03T10:48:14.315Z,2.04
2023-06-03T10:49:15.326Z,1.97
2023-06-03T10:50:14.385Z,1.97
2023-06-03T10:51:15.414Z,1.95
2023-06-03T10:52:15.489Z,2.01
2023-06-03T10:53:16.710Z,2.02
2023-06-03T10:54:14.485Z,2.02
2023-06-03T10:55:14.522Z,2.02
2023-06-03T10:56:15.474Z,2.03
2023-06-03T10:57:14.466Z,2.03
2023-06-03T10:58:15.455Z,2.08
2023-06-03T10:59:15.443Z,2.12
2023-06-03T11:00:15.470Z,2.11
2023-06-03T11:01:15.475Z,2.03
2023-06-03T11:02:14.453Z,2.01
2023-06-03T11:03:14.415Z,2.01
2023-06-03T11:04:15.532Z,2.03
2023-06-03T11:05:15.416Z,2.03
2023-06-03T11:06:15.433Z,2.04
2023-06-03T11:07:14.407Z,1.94
2023-06-03T11:08:15.379Z,1.95
2023-06-03T11:09:15.378Z,1.98
2023-06-03T11:10:14.370Z,1.97
2023-06-03T11:11:15.375Z,2.00
2023-06-03T11:12:15.375Z,1.97
2023-06-03T11:13:15.347Z,1.95
2023-06-03T11:14:15.337Z,1.99
2023-06-03T11:15:15.329Z,1.96
2023-06-03T11:16:15.345Z,1.94
2023-06-03T11:17:15.323Z,1.93
2023-06-03T11:18:15.333Z,1.90
2023-06-03T11:19:15.434Z,1.93
2023-06-03T11:20:15.435Z,1.94
2023-06-03T11:21:15.472Z,1.97
2023-06-03T11:22:15.524Z,1.88
2023-06-03T11:23:15.578Z,1.94
2023-06-03T11:24:15.598Z,1.94
2023-06-03T11:25:15.653Z,1.88
2023-06-03T11:26:14.693Z,1.94
2023-06-03T11:27:14.746Z,1.90
2023-06-03T11:28:15.782Z,1.93
2023-06-03T11:29:15.807Z,1.93
2023-06-03T11:30:15.847Z,1.91
2023-06-03T11:31:14.979Z,1.92
2023-06-03T11:32:14.942Z,1.92
2023-06-03T11:33:14.970Z,1.88
2023-06-03T11:34:16.034Z,1.88
2023-06-03T11:35:16.057Z,1.87
2023-06-03T11:36:16.094Z,1.86
2023-06-03T11:37:16.159Z,1.83
2023-06-03T11:38:16.181Z,1.86
2023-06-03T11:39:15.253Z,1.90
2023-06-03T11:40:16.327Z,1.92
2023-06-03T11:41:16.319Z,1.95
2023-06-03T11:42:15.362Z,1.96
2023-06-03T11:43:15.396Z,1.91
2023-06-03T11:44:25.039Z,1.86
2023-06-03T11:45:16.462Z,1.87
2023-06-03T11:46:16.476Z,1.88
2023-06-03T11:47:15.416Z,1.90
2023-06-03T11:48:15.464Z,1.91
2023-06-03T11:49:15.439Z,1.88
2023-06-03T11:50:15.404Z,1.86
2023-06-03T11:51:16.381Z,1.82
2023-06-03T11:52:15.370Z,1.81
2023-06-03T11:53:15.369Z,1.80
2023-06-03T11:54:16.386Z,1.78
2023-06-03T11:55:16.468Z,1.80
2023-06-03T11:56:16.795Z,1.81
2023-06-03T11:57:16.359Z,1.84
2023-06-03T11:58:15.330Z,1.86
2023-06-03T11:59:15.324Z,1.87
2023-06-03T12:00:16.317Z,1.88
2023-06-03T12:01:16.328Z,1.86
2023-06-03T12:02:15.336Z,1.79
2023-06-03T12:03:16.485Z,1.81
2023-06-03T12:04:15.282Z,1.83
2023-06-03T12:05:16.292Z,1.83
2023-06-03T12:06:16.262Z,1.79
2023-06-03T12:07:15.251Z,1.78
2023-06-03T12:08:16.253Z,1.79
2023-06-03T12:09:16.272Z,1.76
2023-06-03T12:10:16.239Z,1.77
2023-06-03T12:11:16.232Z,1.75
2023-06-03T12:12:16.225Z,1.76
2023-06-03T12:13:15.214Z,1.73
2023-06-03T12:14:15.261Z,1.73
2023-06-03T12:15:16.316Z,1.70
2023-06-03T12:16:15.362Z,1.71
2023-06-03T12:17:16.368Z,1.70
2023-06-03T12:18:16.437Z,1.68
2023-06-03T12:19:16.489Z,1.72
2023-06-03T12:20:17.231Z,1.71
2023-06-03T12:21:16.556Z,1.69
2023-06-03T12:22:15.586Z,1.71
2023-06-03T12:23:15.661Z,1.73
2023-06-03T12:24:16.664Z,1.71
2023-06-03T12:25:16.700Z,1.69
2023-06-03T12:26:16.744Z,1.70
2023-06-03T12:27:16.788Z,1.73
2023-06-03T12:28:16.811Z,1.67
2023-06-03T12:29:16.874Z,1.75
2023-06-03T12:30:15.904Z,1.75
2023-06-03T12:31:16.036Z,1.75
2023-06-03T12:32:17.072Z,1.78
2023-06-03T12:33:16.084Z,1.78
2023-06-03T12:34:17.055Z,1.76
2023-06-03T12:35:17.106Z,1.74
2023-06-03T12:36:16.228Z,1.73
2023-06-03T12:37:17.196Z,1.76
2023-06-03T12:38:16.272Z,1.76
2023-06-03T12:39:17.320Z,1.72
2023-06-03T12:40:17.340Z,1.75
2023-06-03T12:41:17.381Z,1.76
2023-06-03T12:42:17.433Z,1.76
2023-06-03T12:43:17.489Z,1.74
2023-06-03T12:44:16.526Z,1.76
2023-06-03T12:45:17.565Z,1.75
2023-06-03T12:46:17.615Z,1.72
2023-06-03T12:47:17.681Z,1.70
2023-06-03T12:48:16.700Z,1.70
2023-06-03T12:49:16.762Z,1.76
2023-06-03T12:50:17.769Z,1.72
2023-06-03T12:51:16.810Z,1.70
2023-06-03T12:52:21.401Z,1.74
2023-06-03T12:53:16.856Z,1.75
2023-06-03T12:54:17.842Z,1.75
2023-06-03T12:55:17.826Z,1.75
2023-06-03T12:56:16.862Z,1.75
2023-06-03T12:57:17.809Z,1.76
2023-06-03T12:58:17.836Z,1.78
2023-06-03T12:59:17.877Z,1.79
2023-06-03T13:00:18.230Z,1.79
2023-06-03T13:01:17.019Z,1.78
2023-06-03T13:02:18.032Z,1.80
2023-06-03T13:03:18.149Z,1.77
2023-06-03T13:04:18.119Z,1.73
2023-06-03T13:05:17.172Z,1.72
2023-06-03T13:06:17.195Z,1.70
2023-06-03T13:07:18.246Z,1.79
2023-06-03T13:08:18.267Z,1.70
2023-06-03T13:09:18.317Z,1.70
2023-06-03T13:10:17.428Z,1.69
2023-06-03T13:11:18.427Z,1.67
2023-06-03T13:12:18.506Z,1.67
2023-06-03T13:13:18.528Z,1.67
2023-06-03T13:14:18.548Z,1.65
2023-06-03T13:15:18.609Z,1.64
2023-06-03T13:16:17.685Z,1.66
2023-06-03T13:17:17.676Z,1.71
2023-06-03T13:18:17.707Z,1.68